Time;durP1;ratioP1;P1;durP2;ratioP2;P2;SDS_P1;SDS_P2;PMS_P1;PMS_P2;Temp;Humidity;BMP_temperature;BMP_pressure;BME280_temperature;BME280_humidity;BME280_pressure;Samples;Min_cycle;Max_cycle;Signal;HPM_P1;HPM_P2
2022/11/06 00:01:29;;;;;;;22.90;10.93;;;4.30;71.20;;;;;;5091900;27;46331;-65
2022/11/06 00:03:55;;;;;;;23.23;11.50;;;4.40;71.20;;;;;;5090046;27;46455;-65
2022/11/06 00:09:08;;;;;;;19.60;10.27;;;4.40;72.20;;;;;;5091981;27;46408;-65
2022/11/06 00:11:34;;;;;;;20.20;9.80;;;4.40;71.30;;;;;;5094228;27;45895;-64
2022/11/06 00:14:01;;;;;;;20.23;10.57;;;4.40;72.50;;;;;;5089503;27;46676;-67
2022/11/06 00:16:27;;;;;;;19.27;10.85;;;4.40;71.70;;;;;;5088101;27;46211;-66
2022/11/06 00:18:53;;;;;;;19.87;9.90;;;4.40;72.80;;;;;;5089490;27;46409;-66
2022/11/06 00:21:25;;;;;;;19.57;9.67;;;4.30;71.90;;;;;;5088899;27;46512;-64
2022/11/06 00:23:52;;;;;;;11.33;6.20;;;4.20;71.90;;;;;;5088137;27;47103;-64
2022/11/06 00:26:21;;;;;;;10.55;6.55;;;4.10;72.90;;;;;;5088979;27;45881;-63
2022/11/06 00:28:47;;;;;;;12.10;6.47;;;4.00;72.80;;;;;;5084169;27;46351;-65
2022/11/06 00:31:16;;;;;;;15.23;7.80;;;3.80;71.60;;;;;;5087819;27;46346;-63
2022/11/06 00:33:41;;;;;;;14.47;8.90;;;3.80;72.70;;;;;;5085977;27;47922;-64
2022/11/06 00:36:11;;;;;;;18.67;9.13;;;3.90;72.70;;;;;;5082401;27;46452;-66
2022/11/06 00:38:37;;;;;;;16.83;10.18;;;3.90;72.70;;;;;;5087111;27;46455;-64
2022/11/06 00:41:09;;;;;;;15.67;9.20;;;4.00;71.70;;;;;;5086702;27;46449;-66
2022/11/06 00:43:35;;;;;;;19.17;10.63;;;4.00;71.70;;;;;;5087620;27;46473;-65
2022/11/06 00:46:05;;;;;;;18.50;9.30;;;4.00;72.80;;;;;;5086700;27;46312;-67
2022/11/06 00:48:31;;;;;;;16.63;9.93;;;4.00;72.80;;;;;;5086749;27;46571;-64
2022/11/06 00:51:05;;;;;;;16.03;9.37;;;4.00;71.70;;;;;;5089601;27;46365;-66
2022/11/06 00:53:31;;;;;;;16.80;9.37;;;4.00;71.70;;;;;;5087010;27;46548;-66
2022/11/06 00:56:08;;;;;;;15.77;8.73;;;4.00;72.80;;;;;;5086251;27;46421;-65
2022/11/06 00:58:34;;;;;;;17.50;9.60;;;4.00;71.70;;;;;;5085025;27;46615;-65
2022/11/06 01:01:07;;;;;;;16.27;10.03;;;4.00;71.70;;;;;;5085941;27;46592;-65
2022/11/06 01:03:32;;;;;;;16.77;8.87;;;4.00;71.70;;;;;;5114796;27;47465;-65
2022/11/06 01:06:07;;;;;;;18.73;8.73;;;3.90;72.70;;;;;;5088658;27;46407;-65
2022/11/06 01:08:32;;;;;;;15.03;8.10;;;3.90;72.70;;;;;;5089209;27;46316;-65
2022/11/06 01:11:04;;;;;;;15.20;8.47;;;3.80;71.60;;;;;;5086658;27;46563;-64
2022/11/06 01:13:30;;;;;;;17.30;7.47;;;3.80;72.60;;;;;;5084567;27;46410;-67
2022/11/06 01:15:55;;;;;;;10.30;6.50;;;3.60;71.90;;;;;;5084794;27;46413;-65
2022/11/06 01:18:21;;;;;;;11.77;6.00;;;3.50;71.70;;;;;;5087062;27;46358;-64
2022/11/06 01:20:47;;;;;;;9.47;5.70;;;3.50;72.10;;;;;;5087608;27;46577;-63
2022/11/06 01:23:13;;;;;;;11.90;6.10;;;3.40;73.20;;;;;;5082916;27;46392;-65
2022/11/06 01:25:38;;;;;;;9.10;5.60;;;3.30;73.40;;;;;;5081747;27;46431;-67
2022/11/06 01:28:05;;;;;;;10.00;6.07;;;3.20;73.50;;;;;;5086238;27;46559;-67
2022/11/06 01:30:30;;;;;;;10.33;5.80;;;3.10;72.70;;;;;;5088317;27;46622;-66
2022/11/06 01:32:56;;;;;;;7.70;5.43;;;3.00;72.60;;;;;;5089555;27;46417;-66
2022/11/06 01:35:21;;;;;;;10.27;5.97;;;3.00;73.70;;;;;;5081137;27;46588;-68
2022/11/06 01:37:47;;;;;;;8.97;5.77;;;3.00;73.70;;;;;;5081656;27;46407;-68
2022/11/06 01:40:12;;;;;;;9.70;6.07;;;3.00;72.60;;;;;;5085718;27;46424;-67
2022/11/06 01:42:38;;;;;;;9.37;6.00;;;3.00;73.60;;;;;;5084604;27;48416;-68
2022/11/06 01:45:07;;;;;;;10.17;5.90;;;3.00;73.40;;;;;;5084206;27;46011;-66
2022/11/06 01:47:32;;;;;;;11.32;6.30;;;3.00;73.20;;;;;;5082308;27;45948;-65
2022/11/06 01:50:04;;;;;;;11.73;7.07;;;3.00;72.10;;;;;;5083268;27;45902;-67
2022/11/06 01:52:32;;;;;;;12.15;5.85;;;3.00;73.10;;;;;;5087660;27;47482;-65
2022/11/06 01:55:09;;;;;;;14.52;6.07;;;3.00;73.00;;;;;;5088411;27;46524;-68
2022/11/06 01:57:35;;;;;;;9.00;5.85;;;3.00;73.00;;;;;;5077718;27;46459;-66
2022/11/06 02:00:01;;;;;;;13.57;7.30;;;2.90;72.10;;;;;;5086040;27;46435;-66
2022/11/06 02:02:27;;;;;;;43.17;20.90;;;2.90;73.10;;;;;;5087984;27;49233;-66
2022/11/06 02:04:52;;;;;;;59.53;27.10;;;2.90;72.90;;;;;;5087105;27;46499;-70
2022/11/06 02:07:19;;;;;;;38.20;18.97;;;2.90;73.00;;;;;;5079766;27;46410;-66
2022/11/06 02:09:45;;;;;;;29.07;15.03;;;2.90;72.00;;;;;;5080861;27;46525;-67
2022/11/06 02:12:24;;;;;;;22.90;13.10;;;2.90;73.10;;;;;;5086028;27;46412;-65
2022/11/06 02:15:04;;;;;;;13.55;7.05;;;2.90;72.90;;;;;;5086680;27;46471;-65
2022/11/06 02:17:40;;;;;;;11.25;6.60;;;2.90;72.90;;;;;;5083837;27;46492;-67
2022/11/06 02:20:47;;;;;;;11.00;6.67;;;2.90;71.90;;;;;;5081103;27;46478;-69
2022/11/06 02:23:32;;;;;;;13.45;7.40;;;2.90;72.90;;;;;;5065930;27;47486;-66
2022/11/06 02:26:23;;;;;;;12.95;7.25;;;3.00;72.90;;;;;;5085662;27;45735;-68
2022/11/06 02:29:11;;;;;;;10.60;6.70;;;3.00;72.70;;;;;;5082098;27;46226;-66
2022/11/06 02:31:40;;;;;;;14.20;6.83;;;3.00;71.80;;;;;;5113858;27;45814;-65
2022/11/06 02:34:13;;;;;;;11.57;7.20;;;3.00;72.80;;;;;;5084331;27;48702;-67
2022/11/06 02:36:46;;;;;;;11.85;6.80;;;3.00;72.80;;;;;;5084172;27;46406;-67
2022/11/06 02:39:15;;;;;;;13.13;6.60;;;3.00;72.60;;;;;;5088378;27;46421;-65
2022/11/06 02:41:45;;;;;;;20.33;8.30;;;3.00;71.80;;;;;;5080527;27;46659;-67
2022/11/06 02:44:18;;;;;;;15.30;7.43;;;2.90;72.70;;;;;;5083403;27;46484;-67
2022/11/06 02:46:53;;;;;;;14.80;7.25;;;2.90;72.60;;;;;;5118272;27;46492;-67
2022/11/06 02:49:32;;;;;;;11.00;6.45;;;2.90;71.80;;;;;;5085161;27;46534;-67
2022/11/06 02:52:17;;;;;;;11.00;5.40;;;2.80;72.80;;;;;;5087612;27;46344;-66
2022/11/06 02:54:49;;;;;;;10.77;5.82;;;2.80;72.80;;;;;;5085331;27;48263;-66
2022/11/06 02:57:18;;;;;;;8.52;4.80;;;2.80;72.90;;;;;;5087966;27;46415;-68
2022/11/06 02:59:56;;;;;;;10.55;6.15;;;2.70;71.70;;;;;;5085060;27;45901;-66
2022/11/06 03:02:40;;;;;;;9.57;5.63;;;2.70;72.80;;;;;;5085450;27;46440;-69
2022/11/06 03:05:15;;;;;;;7.80;5.18;;;2.70;71.80;;;;;;5085316;27;46763;-71
2022/11/06 03:08:03;;;;;;;8.57;5.68;;;2.60;72.90;;;;;;5080671;27;46499;-68
2022/11/06 03:10:36;;;;;;;8.50;4.70;;;2.70;71.80;;;;;;5117325;27;46421;-69
2022/11/06 03:13:17;;;;;;;7.73;5.03;;;2.80;72.80;;;;;;5085142;27;46477;-68
2022/11/06 03:16:09;;;;;;;6.85;4.90;;;2.70;72.20;;;;;;5086678;27;47676;-68
2022/11/06 03:18:58;;;;;;;9.40;5.65;;;2.70;71.80;;;;;;5084812;27;46666;-67
2022/11/06 03:21:54;;;;;;;7.75;4.88;;;2.70;70.70;;;;;;5086556;27;46502;-66
2022/11/06 03:24:33;;;;;;;7.63;5.07;;;2.70;71.70;;;;;;5115033;27;46341;-66
2022/11/06 03:27:07;;;;;;;8.38;5.53;;;2.70;71.70;;;;;;5088694;27;46452;-67
2022/11/06 03:30:05;;;;;;;10.27;5.97;;;2.60;71.00;;;;;;5084040;27;46851;-66
2022/11/06 03:32:30;;;;;;;11.35;6.43;;;2.60;71.80;;;;;;5041988;27;46430;-65
2022/11/06 03:34:59;;;;;;;12.67;6.57;;;2.60;72.30;;;;;;5084466;27;46665;-66
2022/11/06 03:38:04;;;;;;;10.23;5.75;;;2.60;72.20;;;;;;5086867;27;46381;-70
2022/11/06 03:40:34;;;;;;;9.48;6.07;;;2.60;72.30;;;;;;5074496;27;46476;-66
2022/11/06 03:43:02;;;;;;;16.63;5.05;;;2.80;72.60;;;;;;5081801;27;46456;-66
2022/11/06 03:45:29;;;;;;;9.30;6.13;;;2.60;72.30;;;;;;5082382;27;46448;-65
2022/11/06 03:48:30;;;;;;;10.85;6.30;;;2.50;72.30;;;;;;5083340;27;47673;-65
2022/11/06 03:51:04;;;;;;;8.15;5.30;;;2.50;71.50;;;;;;5077206;27;46337;-66
2022/11/06 03:53:37;;;;;;;9.23;5.20;;;2.50;72.60;;;;;;5088501;27;46479;-65
2022/11/06 03:56:11;;;;;;;10.63;5.73;;;2.50;72.70;;;;;;5080157;27;46561;-65
2022/11/06 03:58:41;;;;;;;26.48;12.50;;;2.50;72.70;;;;;;5082960;27;46798;-68
2022/11/06 04:01:09;;;;;;;18.90;9.25;;;2.50;72.50;;;;;;5085005;27;46282;-65
2022/11/06 04:03:59;;;;;;;14.10;8.48;;;2.50;72.50;;;;;;5086213;27;46405;-66
2022/11/06 04:06:36;;;;;;;17.77;8.60;;;2.50;72.50;;;;;;5075453;27;46789;-66
2022/11/06 04:14:37;;;;;;;11.27;6.35;;;2.60;71.70;;;;;;5086240;27;46517;-68
2022/11/06 04:17:06;;;;;;;7.97;4.97;;;2.50;71.70;;;;;;5078652;27;46752;-65
2022/11/06 04:19:31;;;;;;;9.50;5.20;;;2.30;71.40;;;;;;5080908;27;46534;-67
2022/11/06 04:22:15;;;;;;;12.00;4.70;;;2.30;72.40;;;;;;5086781;27;46365;-65
2022/11/06 04:28:04;;;;;;;7.63;4.75;;;2.40;72.40;;;;;;5073552;27;46493;-65
2022/11/06 04:30:38;;;;;;;9.35;5.57;;;2.40;71.10;;;;;;5110564;27;46151;-67
2022/11/06 04:33:15;;;;;;;10.10;5.25;;;2.40;73.20;;;;;;5084347;27;46453;-66
2022/11/06 04:35:59;;;;;;;9.95;5.75;;;2.40;72.10;;;;;;5090992;27;46483;-65
2022/11/06 04:38:38;;;;;;;13.40;5.53;;;2.40;71.90;;;;;;5086658;27;46563;-66
2022/11/06 04:41:11;;;;;;;18.15;6.55;;;2.50;70.50;;;;;;5087624;27;46687;-67
2022/11/06 04:43:48;;;;;;;12.52;6.20;;;2.50;71.50;;;;;;5086826;27;47302;-65
2022/11/06 04:46:21;;;;;;;33.88;8.40;;;2.50;71.50;;;;;;5088540;27;46440;-67
2022/11/06 04:48:48;;;;;;;16.50;6.22;;;2.60;71.60;;;;;;5085934;27;46325;-66
2022/11/06 04:51:16;;;;;;;25.90;7.28;;;2.50;70.50;;;;;;5084321;27;47906;-69
2022/11/06 04:53:43;;;;;;;17.10;6.90;;;2.50;71.50;;;;;;5083704;27;46301;-67
2022/11/06 04:56:11;;;;;;;20.58;6.97;;;2.40;71.50;;;;;;5087121;27;46427;-68
2022/11/06 04:58:37;;;;;;;37.00;7.30;;;2.40;71.40;;;;;;5088239;27;46520;-66
2022/11/06 05:01:03;;;;;;;47.67;6.23;;;2.40;70.40;;;;;;5079163;27;46457;-67
2022/11/06 05:03:29;;;;;;;25.23;6.53;;;2.40;71.40;;;;;;5087425;27;46455;-67
2022/11/06 05:05:54;;;;;;;17.40;6.70;;;2.40;71.50;;;;;;5091029;27;46491;-66
2022/11/06 05:08:21;;;;;;;33.73;6.40;;;2.40;71.50;;;;;;5087020;27;46540;-66
2022/11/06 05:10:46;;;;;;;16.13;6.38;;;2.30;71.00;;;;;;5091570;27;46627;-66
2022/11/06 05:13:13;;;;;;;12.53;5.67;;;2.20;72.00;;;;;;5083146;27;46341;-71
2022/11/06 05:15:39;;;;;;;8.85;5.40;;;2.20;72.30;;;;;;5083554;27;46438;-66
2022/11/06 05:18:05;;;;;;;8.30;5.20;;;2.10;72.50;;;;;;5088706;27;46492;-67
2022/11/06 05:20:31;;;;;;;9.98;5.07;;;2.00;72.70;;;;;;5089457;27;46498;-66
2022/11/06 05:22:56;;;;;;;7.00;4.80;;;1.90;72.90;;;;;;5085448;27;46285;-69
2022/11/06 05:25:23;;;;;;;7.63;5.33;;;1.90;74.10;;;;;;5081582;27;46386;-66
2022/11/06 05:27:48;;;;;;;8.55;5.22;;;1.80;72.90;;;;;;5087496;27;46591;-65
2022/11/06 05:30:14;;;;;;;9.30;5.03;;;1.80;73.20;;;;;;5092239;27;47531;-67
2022/11/06 05:32:39;;;;;;;8.57;5.27;;;1.80;73.00;;;;;;5084250;27;46400;-68
2022/11/06 05:35:05;;;;;;;10.27;5.70;;;1.80;72.80;;;;;;5087190;27;46425;-68
2022/11/06 05:37:31;;;;;;;8.30;4.47;;;1.80;72.60;;;;;;5086953;27;46460;-65
2022/11/06 05:39:57;;;;;;;6.57;4.50;;;1.80;71.50;;;;;;5091119;27;46494;-68
2022/11/06 05:42:23;;;;;;;86.07;35.07;;;1.80;72.70;;;;;;5086682;27;46419;-67
2022/11/06 05:44:48;;;;;;;13.23;7.57;;;1.90;72.40;;;;;;5088886;27;45820;-69
2022/11/06 05:47:14;;;;;;;5.67;3.83;;;1.90;72.30;;;;;;5086788;27;46652;-67
2022/11/06 05:49:39;;;;;;;14.07;8.63;;;1.90;71.50;;;;;;5086939;27;47315;-67
2022/11/06 05:52:05;;;;;;;16.50;8.73;;;1.90;72.40;;;;;;5086147;27;46375;-66
2022/11/06 05:54:30;;;;;;;9.37;5.60;;;2.00;72.60;;;;;;5081062;27;46409;-68
2022/11/06 05:56:56;;;;;;;13.93;7.97;;;2.00;72.60;;;;;;5086228;27;46427;-67
2022/11/06 05:59:22;;;;;;;14.17;7.80;;;2.00;72.70;;;;;;5080317;27;47247;-65
2022/11/06 06:01:47;;;;;;;6.93;4.73;;;2.00;71.70;;;;;;5088366;27;46410;-67
2022/11/06 06:04:13;;;;;;;13.07;6.67;;;2.10;72.90;;;;;;5081687;27;46499;-65
2022/11/06 06:06:39;;;;;;;7.00;4.87;;;2.00;72.80;;;;;;5086359;27;45989;-65
2022/11/06 06:09:04;;;;;;;7.50;4.93;;;2.00;72.90;;;;;;5089648;27;46551;-67
2022/11/06 06:11:30;;;;;;;8.50;4.80;;;2.00;73.00;;;;;;5086332;27;46688;-65
2022/11/06 06:13:56;;;;;;;8.63;5.97;;;2.00;73.00;;;;;;5086066;27;46566;-67
2022/11/06 06:16:21;;;;;;;8.00;4.90;;;1.90;72.90;;;;;;5084157;27;45876;-64
2022/11/06 06:18:50;;;;;;;7.37;4.63;;;1.90;73.00;;;;;;5085032;27;46374;-65
2022/11/06 06:21:16;;;;;;;7.50;5.10;;;1.90;73.00;;;;;;5090795;27;45893;-64
2022/11/06 06:23:42;;;;;;;11.10;5.70;;;2.00;74.10;;;;;;5087621;27;46107;-65
2022/11/06 06:26:08;;;;;;;9.87;6.00;;;2.10;72.90;;;;;;5078408;27;46452;-65
2022/11/06 06:28:33;;;;;;;15.85;6.75;;;2.10;72.70;;;;;;5081716;27;47418;-65
2022/11/06 06:31:04;;;;;;;8.53;5.30;;;2.20;72.20;;;;;;5084209;27;46463;-65
2022/11/06 06:33:29;;;;;;;13.00;5.43;;;2.30;71.90;;;;;;5086225;27;46537;-65
2022/11/06 06:35:55;;;;;;;18.33;5.20;;;2.50;71.60;;;;;;5081067;27;46615;-67
2022/11/06 06:38:21;;;;;;;23.73;6.50;;;2.50;71.50;;;;;;5078276;27;47193;-66
2022/11/06 06:40:47;;;;;;;14.00;6.28;;;2.50;71.50;;;;;;5086666;27;46635;-65
2022/11/06 06:43:12;;;;;;;25.03;5.63;;;2.60;71.60;;;;;;5116864;27;46547;-65
2022/11/06 06:45:38;;;;;;;26.03;5.93;;;2.60;71.60;;;;;;5086635;27;46383;-65
2022/11/06 06:48:04;;;;;;;25.30;7.07;;;2.70;71.70;;;;;;5085299;27;46478;-66
2022/11/06 06:50:30;;;;;;;18.70;8.52;;;2.80;71.80;;;;;;5084995;27;46621;-67
2022/11/06 06:52:57;;;;;;;28.60;10.35;;;2.90;73.00;;;;;;5084086;27;46014;-65
2022/11/06 06:55:23;;;;;;;19.30;9.30;;;3.00;71.90;;;;;;5083250;27;46426;-66
2022/11/06 06:57:55;;;;;;;20.40;9.20;;;3.00;71.90;;;;;;5081114;27;47101;-65
2022/11/06 07:00:20;;;;;;;31.92;8.90;;;3.20;72.10;;;;;;5078651;27;46520;-65
2022/11/06 07:02:46;;;;;;;8.80;6.03;;;3.30;72.30;;;;;;5084615;27;46389;-66
2022/11/06 07:05:11;;;;;;;31.07;8.60;;;3.20;72.20;;;;;;5084082;27;46435;-66
2022/11/06 07:07:37;;;;;;;26.63;12.50;;;3.30;72.20;;;;;;5090070;27;47445;-65
2022/11/06 07:10:03;;;;;;;27.03;8.80;;;3.50;72.30;;;;;;5075312;27;46478;-66
2022/11/06 07:12:29;;;;;;;24.42;10.60;;;3.60;72.50;;;;;;5085792;27;46380;-65
2022/11/06 07:14:54;;;;;;;11.40;4.40;;;3.80;71.90;;;;;;5079316;27;46774;-66
2022/11/06 07:17:20;;;;;;;16.83;4.70;;;3.90;72.10;;;;;;5085909;27;46508;-66
2022/11/06 07:19:45;;;;;;;20.93;5.70;;;4.00;72.40;;;;;;5086490;27;46333;-65
2022/11/06 07:22:11;;;;;;;7.23;5.30;;;4.00;72.70;;;;;;5081984;27;46388;-67
2022/11/06 07:24:37;;;;;;;25.67;6.10;;;4.00;72.80;;;;;;5114381;27;46542;-67
2022/11/06 07:27:02;;;;;;;8.20;4.87;;;4.10;74.10;;;;;;5086976;27;47951;-66
2022/11/06 07:29:28;;;;;;;21.00;4.63;;;4.10;71.80;;;;;;5085078;27;46365;-67
2022/11/06 07:31:53;;;;;;;25.00;10.50;;;4.20;73.00;;;;;;5082875;27;46380;-64
2022/11/06 07:34:19;;;;;;;19.00;9.47;;;4.20;72.90;;;;;;5081821;27;46388;-66
2022/11/06 07:36:44;;;;;;;27.07;9.23;;;4.20;73.00;;;;;;5084690;27;46511;-66
2022/11/06 07:39:10;;;;;;;14.50;5.77;;;4.20;73.00;;;;;;5115295;27;46693;-65
2022/11/06 07:41:36;;;;;;;21.37;7.83;;;4.20;72.90;;;;;;5093539;27;46508;-66
2022/11/06 07:44:02;;;;;;;22.73;6.30;;;4.30;73.00;;;;;;5112653;27;46540;-66
2022/11/06 07:46:28;;;;;;;10.77;6.45;;;4.50;72.40;;;;;;5080253;27;47386;-65
2022/11/06 07:48:53;;;;;;;9.00;6.10;;;4.70;71.60;;;;;;5088158;27;46449;-67
2022/11/06 07:51:19;;;;;;;10.80;6.13;;;4.90;71.60;;;;;;5085984;27;45860;-65
2022/11/06 07:53:45;;;;;;;11.50;5.13;;;5.00;71.00;;;;;;5085998;27;46373;-65
2022/11/06 07:56:10;;;;;;;21.53;5.77;;;5.20;70.40;;;;;;5080400;27;47682;-65
2022/11/06 07:58:36;;;;;;;31.60;6.33;;;5.20;69.90;;;;;;5083598;27;46649;-65
2022/11/06 08:01:02;;;;;;;14.53;4.90;;;5.10;70.00;;;;;;5116451;27;46509;-65
2022/11/06 08:03:28;;;;;;;18.57;5.70;;;5.10;70.20;;;;;;5083222;27;46428;-66
2022/11/06 08:05:55;;;;;;;24.57;5.20;;;5.10;70.20;;;;;;5086002;27;47184;-66
2022/11/06 08:08:20;;;;;;;43.90;5.65;;;5.30;70.30;;;;;;5085044;27;46814;-65
2022/11/06 08:10:46;;;;;;;30.83;4.80;;;5.40;70.20;;;;;;5088114;27;46455;-66
2022/11/06 08:13:16;;;;;;;19.93;5.07;;;5.60;70.00;;;;;;5085905;27;46574;-68
2022/11/06 08:15:43;;;;;;;13.30;4.40;;;5.70;69.60;;;;;;5086859;27;46401;-66
2022/11/06 08:18:09;;;;;;;23.73;5.50;;;5.80;69.40;;;;;;5083460;27;46276;-66
2022/11/06 08:20:36;;;;;;;32.73;7.00;;;5.80;69.50;;;;;;5085895;27;46607;-65
2022/11/06 08:23:04;;;;;;;21.40;6.23;;;5.90;69.60;;;;;;5088142;27;45934;-66
2022/11/06 08:25:31;;;;;;;34.47;6.90;;;6.00;69.30;;;;;;5083641;27;46681;-65
2022/11/06 08:27:58;;;;;;;20.73;6.33;;;6.20;70.20;;;;;;5089610;27;46429;-65
2022/11/06 08:30:25;;;;;;;49.80;6.70;;;6.40;68.80;;;;;;5081920;27;46534;-67
2022/11/06 08:32:51;;;;;;;24.93;6.13;;;6.30;69.00;;;;;;5084471;27;46499;-66
2022/11/06 08:35:17;;;;;;;87.20;12.30;;;6.20;69.60;;;;;;5084012;27;47281;-65
2022/11/06 08:37:43;;;;;;;29.70;9.47;;;6.10;69.80;;;;;;5084423;27;46643;-66
2022/11/06 08:40:09;;;;;;;15.83;7.90;;;6.20;70.00;;;;;;5086580;27;46856;-66
2022/11/06 08:42:35;;;;;;;13.57;5.33;;;6.30;69.40;;;;;;5088127;27;46419;-65
2022/11/06 08:45:00;;;;;;;55.30;10.50;;;6.50;69.10;;;;;;5083635;27;46375;-67
2022/11/06 08:47:26;;;;;;;62.50;7.93;;;6.60;68.80;;;;;;5081951;27;46696;-66
2022/11/06 08:49:51;;;;;;;60.23;7.93;;;6.30;69.60;;;;;;5088129;27;46316;-65
2022/11/06 08:52:17;;;;;;;106.67;8.73;;;6.20;70.50;;;;;;5083897;27;46527;-65
2022/11/06 08:54:42;;;;;;;52.70;8.60;;;6.10;70.70;;;;;;5087389;27;48294;-67
2022/11/06 08:57:08;;;;;;;61.77;7.90;;;6.10;71.10;;;;;;5084928;27;46578;-67
2022/11/06 08:59:33;;;;;;;64.50;8.03;;;6.20;71.10;;;;;;5084733;27;46361;-65
2022/11/06 09:01:59;;;;;;;68.10;9.73;;;6.40;70.70;;;;;;5083978;27;45934;-68
2022/11/06 09:04:25;;;;;;;16.90;6.50;;;6.50;70.60;;;;;;5089623;27;46616;-67
2022/11/06 09:06:51;;;;;;;8.53;5.93;;;6.70;70.10;;;;;;5076171;27;47008;-69
2022/11/06 09:09:17;;;;;;;9.60;6.60;;;6.80;69.70;;;;;;5082003;27;46507;-66
2022/11/06 09:11:42;;;;;;;14.63;9.00;;;7.00;69.80;;;;;;5086484;27;46477;-66
2022/11/06 09:14:08;;;;;;;11.70;6.60;;;7.30;69.40;;;;;;5083893;27;47375;-68
2022/11/06 09:16:33;;;;;;;11.80;7.50;;;7.40;69.40;;;;;;5082303;27;46746;-66
2022/11/06 09:18:59;;;;;;;9.30;6.50;;;7.40;69.60;;;;;;5077775;27;46471;-68
2022/11/06 09:21:24;;;;;;;16.13;9.10;;;7.50;69.80;;;;;;5082937;27;46639;-65
2022/11/06 09:23:50;;;;;;;8.97;6.07;;;7.40;70.00;;;;;;5081132;27;47750;-68
2022/11/06 09:26:16;;;;;;;10.10;6.40;;;7.70;70.10;;;;;;5088423;27;46594;-65
2022/11/06 09:28:42;;;;;;;11.10;6.83;;;7.70;70.10;;;;;;5077966;27;46443;-65
2022/11/06 09:31:08;;;;;;;12.93;7.57;;;7.70;70.20;;;;;;5083191;27;46262;-65
2022/11/06 09:33:34;;;;;;;11.57;7.00;;;7.80;70.30;;;;;;5082216;27;46403;-68
2022/11/06 09:36:03;;;;;;;11.30;7.03;;;7.80;70.20;;;;;;5085012;27;46404;-65
2022/11/06 09:38:29;;;;;;;10.83;7.63;;;7.80;70.20;;;;;;5087008;27;46418;-66
2022/11/06 09:40:57;;;;;;;12.23;7.03;;;7.90;70.50;;;;;;5077412;27;46233;-64
2022/11/06 09:43:36;;;;;;;11.60;7.00;;;8.00;70.40;;;;;;5085839;27;47912;-65
2022/11/06 09:46:20;;;;;;;10.70;7.33;;;8.10;70.10;;;;;;5083989;27;46458;-68
2022/11/06 09:48:54;;;;;;;11.40;6.97;;;8.10;70.20;;;;;;5084459;27;46472;-66
2022/11/06 09:51:32;;;;;;;11.03;7.57;;;8.10;70.20;;;;;;5109849;27;46567;-66
2022/11/06 09:54:15;;;;;;;13.93;7.27;;;8.10;70.40;;;;;;5070300;27;48014;-65
2022/11/06 09:56:42;;;;;;;11.63;7.57;;;8.30;70.50;;;;;;5086345;27;46473;-69
2022/11/06 09:59:13;;;;;;;9.87;7.13;;;8.40;70.10;;;;;;5085097;27;46391;-65
2022/11/06 10:01:49;;;;;;;14.60;7.53;;;8.50;70.10;;;;;;5085207;27;46421;-67
2022/11/06 10:04:41;;;;;;;10.37;7.00;;;8.60;69.80;;;;;;5086073;27;45980;-67
2022/11/06 10:07:25;;;;;;;12.20;7.83;;;8.70;69.60;;;;;;5075869;27;46163;-66
2022/11/06 10:09:50;;;;;;;10.90;7.83;;;8.90;69.10;;;;;;5085085;27;46488;-66
2022/11/06 10:12:40;;;;;;;12.27;7.10;;;8.90;67.70;;;;;;5086106;27;46467;-66
2022/11/06 10:15:25;;;;;;;9.30;6.70;;;8.90;68.80;;;;;;5060306;27;46637;-65
2022/11/06 10:18:16;;;;;;;9.23;6.17;;;8.90;68.90;;;;;;5082249;27;46761;-65
2022/11/06 10:21:09;;;;;;;9.77;7.07;;;8.80;68.80;;;;;;5083802;27;46520;-67
2022/11/06 10:23:58;;;;;;;13.00;7.47;;;8.70;68.70;;;;;;5066375;27;46799;-68
2022/11/06 10:26:50;;;;;;;13.20;6.73;;;8.70;69.40;;;;;;5086383;27;47182;-67
2022/11/06 10:29:36;;;;;;;11.50;7.37;;;8.80;69.20;;;;;;5082121;27;46509;-68
2022/11/06 10:32:11;;;;;;;11.33;6.70;;;8.90;69.10;;;;;;5088276;27;46512;-66
2022/11/06 10:34:45;;;;;;;10.20;6.87;;;8.90;68.40;;;;;;5077627;27;46937;-65
2022/11/06 10:37:21;;;;;;;8.57;5.80;;;8.90;68.60;;;;;;5086819;27;47982;-69
2022/11/06 10:39:48;;;;;;;8.40;5.50;;;8.90;68.20;;;;;;5082846;27;46447;-66
2022/11/06 10:42:17;;;;;;;9.30;5.93;;;9.00;67.90;;;;;;5083027;27;46520;-67
2022/11/06 10:44:52;;;;;;;7.40;4.90;;;9.10;67.90;;;;;;5082591;27;46533;-66
2022/11/06 10:47:23;;;;;;;9.80;5.23;;;9.20;67.70;;;;;;5083891;27;47499;-66
2022/11/06 10:50:01;;;;;;;4.83;3.90;;;9.30;67.20;;;;;;5114548;27;47114;-65
2022/11/06 10:52:40;;;;;;;5.07;3.30;;;9.40;66.70;;;;;;5084105;27;46460;-66
2022/11/06 10:55:43;;;;;;;4.77;3.30;;;9.50;66.00;;;;;;5086314;27;46605;-67
2022/11/06 10:58:13;;;;;;;5.00;3.30;;;9.60;65.20;;;;;;5082523;27;47180;-66
2022/11/06 11:00:39;;;;;;;4.20;3.07;;;9.70;64.70;;;;;;5085527;27;46511;-66
2022/11/06 11:03:20;;;;;;;4.40;2.93;;;9.80;64.40;;;;;;5083096;27;46500;-70
2022/11/06 11:05:46;;;;;;;11.07;3.40;;;9.90;63.40;;;;;;5078932;27;46323;-65
2022/11/06 11:08:44;;;;;;;5.00;2.73;;;9.90;63.20;;;;;;5080751;27;46182;-64
2022/11/06 11:11:13;;;;;;;4.80;3.33;;;10.00;62.30;;;;;;5074766;27;46492;-65
2022/11/06 11:13:43;;;;;;;4.67;3.50;;;10.00;62.30;;;;;;5083126;27;46524;-66
2022/11/06 11:16:18;;;;;;;4.80;2.87;;;10.10;61.80;;;;;;5078452;27;46369;-66
2022/11/06 11:18:45;;;;;;;6.10;3.07;;;10.10;61.50;;;;;;5080744;27;46220;-66
2022/11/06 11:21:18;;;;;;;5.20;3.60;;;10.10;60.70;;;;;;5082319;27;47488;-67
2022/11/06 11:23:44;;;;;;;6.17;3.53;;;10.20;61.00;;;;;;5082975;27;46395;-66
2022/11/06 11:26:21;;;;;;;4.87;3.40;;;10.30;60.60;;;;;;5084136;27;46580;-66
2022/11/06 11:29:15;;;;;;;5.57;3.50;;;10.30;59.70;;;;;;5072986;27;46490;-66
2022/11/06 11:31:46;;;;;;;7.47;4.27;;;10.40;59.10;;;;;;5088430;27;46821;-65
2022/11/06 11:34:19;;;;;;;7.03;4.10;;;10.50;58.80;;;;;;5087496;27;46377;-67
2022/11/06 11:36:54;;;;;;;7.27;3.73;;;10.70;58.30;;;;;;5082369;27;46406;-66
2022/11/06 11:39:36;;;;;;;5.10;3.87;;;10.70;58.40;;;;;;5078266;27;46449;-68
2022/11/06 11:42:31;;;;;;;5.40;3.63;;;10.80;58.40;;;;;;5083856;27;46442;-67
2022/11/06 11:45:08;;;;;;;5.70;3.97;;;10.90;57.80;;;;;;5080904;27;47017;-68
2022/11/06 11:47:35;;;;;;;6.27;3.90;;;10.90;57.40;;;;;;5082398;27;46591;-66
2022/11/06 11:50:21;;;;;;;6.50;4.10;;;11.00;57.30;;;;;;5078947;27;47191;-64
2022/11/06 11:52:51;;;;;;;7.07;4.10;;;11.00;57.30;;;;;;5075005;27;46754;-64
2022/11/06 11:55:20;;;;;;;5.53;3.60;;;11.10;57.60;;;;;;5081248;27;46508;-65
2022/11/06 11:57:50;;;;;;;5.80;4.10;;;11.20;57.10;;;;;;5088711;27;46457;-64
2022/11/06 12:00:18;;;;;;;6.00;4.03;;;11.20;56.90;;;;;;5075411;27;47211;-65
2022/11/06 12:02:47;;;;;;;5.60;4.10;;;11.20;56.40;;;;;;5084184;27;46493;-65
2022/11/06 12:05:15;;;;;;;8.17;4.83;;;11.30;56.40;;;;;;5082388;27;46458;-65
2022/11/06 12:07:48;;;;;;;6.40;3.70;;;11.30;55.70;;;;;;5089775;27;46498;-67
2022/11/06 12:10:32;;;;;;;5.43;3.63;;;11.40;56.10;;;;;;5086709;27;46466;-65
2022/11/06 12:13:01;;;;;;;5.90;3.17;;;11.30;55.20;;;;;;5083193;27;46333;-65
2022/11/06 12:15:49;;;;;;;6.20;4.07;;;11.30;55.30;;;;;;5086886;27;45846;-66
2022/11/06 12:18:22;;;;;;;5.37;3.77;;;11.40;55.00;;;;;;5093323;27;46335;-67
2022/11/06 12:20:56;;;;;;;5.77;3.53;;;11.50;54.80;;;;;;5085475;27;47377;-65
2022/11/06 12:23:55;;;;;;;4.70;3.13;;;11.60;54.20;;;;;;5081902;27;46483;-64
2022/11/06 12:26:25;;;;;;;4.80;3.27;;;11.60;53.20;;;;;;5087291;27;46375;-67
2022/11/06 12:28:55;;;;;;;7.67;4.30;;;11.70;53.20;;;;;;5086873;27;46381;-66
2022/11/06 12:31:44;;;;;;;6.60;4.43;;;11.70;53.20;;;;;;5085124;27;46816;-65
2022/11/06 12:34:19;;;;;;;7.40;4.30;;;11.70;53.30;;;;;;5088818;27;46520;-67
2022/11/06 12:37:12;;;;;;;5.80;3.80;;;11.60;53.10;;;;;;5085456;27;46483;-68
2022/11/06 12:39:45;;;;;;;5.80;3.97;;;11.60;52.10;;;;;;5083320;27;46440;-68
2022/11/06 12:42:12;;;;;;;4.77;3.50;;;11.60;53.30;;;;;;5082867;27;47222;-69
2022/11/06 12:44:38;;;;;;;6.53;3.23;;;11.70;53.20;;;;;;5088823;27;46447;-65
2022/11/06 12:47:33;;;;;;;7.10;4.20;;;11.80;53.30;;;;;;5085076;27;46502;-66
2022/11/06 12:50:36;;;;;;;11.77;5.80;;;11.90;52.40;;;;;;5079916;27;46663;-66
2022/11/06 12:53:40;;;;;;;7.00;4.00;;;11.90;52.10;;;;;;5074559;27;47401;-66
2022/11/06 12:56:32;;;;;;;5.60;4.00;;;11.80;51.40;;;;;;5084463;27;46889;-68
2022/11/06 12:59:18;;;;;;;5.70;3.90;;;11.80;51.80;;;;;;5083890;27;46476;-66
2022/11/06 13:02:02;;;;;;;5.43;3.23;;;11.80;51.70;;;;;;5082872;27;46320;-68
2022/11/06 13:04:52;;;;;;;7.73;4.70;;;11.80;50.20;;;;;;5087557;27;46539;-67
2022/11/06 13:07:45;;;;;;;8.17;4.00;;;11.70;51.10;;;;;;5081788;27;46775;-65
2022/11/06 13:10:39;;;;;;;5.03;2.93;;;11.70;50.50;;;;;;5084937;27;46430;-65
2022/11/06 13:13:14;;;;;;;5.87;2.87;;;11.60;50.40;;;;;;5121677;27;46424;-68
2022/11/06 13:16:16;;;;;;;4.80;2.90;;;11.50;50.00;;;;;;5084883;27;47483;-69
2022/11/06 13:19:20;;;;;;;4.20;2.90;;;11.50;50.00;;;;;;5077053;27;46464;-66
2022/11/06 13:22:06;;;;;;;13.03;5.40;;;11.60;49.20;;;;;;5054213;27;46492;-67
2022/11/06 13:24:35;;;;;;;8.23;4.80;;;11.60;49.70;;;;;;5083896;27;46475;-66